Time;durP1;ratioP1;P1;durP2;ratioP2;P2;SDS_P1;SDS_P2;PMS_P1;PMS_P2;Temp;Humidity;BMP_temperature;BMP_pressure;BME280_temperature;BME280_humidity;BME280_pressure;Samples;Min_cycle;Max_cycle;Signal;HPM_P1;HPM_P2
2023/03/23 00:01:55;;;;;;;51.13;27.90;;;10.30;99.90;;;;;;5083394;28;20699;-92
2023/03/23 00:04:21;;;;;;;44.23;26.27;;;10.30;99.90;;;;;;5085296;28;20484;-91
2023/03/23 00:06:46;;;;;;;47.05;27.77;;;10.50;99.90;;;;;;5084144;28;20394;-94
2023/03/23 00:09:14;;;;;;;47.60;27.13;;;10.50;99.90;;;;;;5083264;28;20481;-91
2023/03/23 00:11:42;;;;;;;43.30;24.58;;;10.40;99.90;;;;;;5084367;28;20528;-92
2023/03/23 00:14:12;;;;;;;48.13;26.02;;;10.50;99.90;;;;;;5082641;28;20417;-91
2023/03/23 00:16:40;;;;;;;50.78;28.00;;;10.40;99.90;;;;;;5087021;28;20402;-92
2023/03/23 00:19:14;;;;;;;49.67;29.65;;;10.40;99.90;;;;;;5086489;28;20434;-91
2023/03/23 00:21:41;;;;;;;60.60;35.97;;;10.40;99.90;;;;;;5088154;28;20406;-93
2023/03/23 00:24:17;;;;;;;70.20;40.67;;;10.50;99.90;;;;;;5087079;28;20932;-93
2023/03/23 00:26:45;;;;;;;76.30;43.17;;;10.50;99.90;;;;;;5069574;28;20935;-95
2023/03/23 00:29:15;;;;;;;61.90;40.67;;;11.00;99.90;;;;;;5088053;28;20394;-92
2023/03/23 00:31:46;;;;;;;73.00;45.73;;;10.80;99.90;;;;;;5085764;28;20398;-93
2023/03/23 00:34:18;;;;;;;79.23;46.63;;;10.70;99.90;;;;;;5088370;28;20402;-94
2023/03/23 00:36:48;;;;;;;62.00;43.05;;;10.70;99.90;;;;;;5086385;28;20413;-93
2023/03/23 00:39:16;;;;;;;68.32;44.92;;;10.70;99.90;;;;;;5087196;28;20426;-93
2023/03/23 00:41:42;;;;;;;56.45;41.33;;;10.70;99.90;;;;;;5087176;28;20745;-95
2023/03/23 00:44:09;;;;;;;73.28;46.17;;;10.60;99.90;;;;;;5086827;28;20414;-95
2023/03/23 00:46:44;;;;;;;56.50;41.45;;;10.80;99.90;;;;;;5087718;28;20436;-92
2023/03/23 00:49:13;;;;;;;60.57;42.87;;;10.50;99.90;;;;;;5085287;28;20390;-95
2023/03/23 00:51:40;;;;;;;44.35;36.20;;;10.60;99.90;;;;;;5088495;28;20821;-94
2023/03/23 00:54:06;;;;;;;43.85;34.70;;;11.10;99.90;;;;;;5086347;28;20409;-93
2023/03/23 00:56:32;;;;;;;43.53;33.78;;;10.70;99.90;;;;;;5087039;28;20761;-94
2023/03/23 00:58:57;;;;;;;37.00;30.57;;;10.60;99.90;;;;;;5086612;28;20418;-93
2023/03/23 01:01:23;;;;;;;33.00;27.40;;;10.60;99.90;;;;;;5085967;28;20414;-93
2023/03/23 01:03:49;;;;;;;25.73;21.30;;;10.60;99.90;;;;;;5087763;28;20390;-94
2023/03/23 01:06:15;;;;;;;26.15;22.40;;;10.50;99.90;;;;;;5085565;28;20471;-92
2023/03/23 01:08:44;;;;;;;21.63;19.33;;;10.30;99.90;;;;;;5087602;28;20405;-95
2023/03/23 01:11:13;;;;;;;17.92;15.65;;;10.40;99.90;;;;;;5069260;28;20403;-95
2023/03/23 01:13:40;;;;;;;15.60;13.63;;;10.30;99.90;;;;;;5086802;28;20835;-94
2023/03/23 01:16:06;;;;;;;19.98;16.85;;;10.10;99.90;;;;;;5085689;28;20409;-94
2023/03/23 01:18:32;;;;;;;19.43;16.10;;;10.40;99.90;;;;;;5086301;28;20487;-94
2023/03/23 01:20:58;;;;;;;19.70;15.57;;;10.50;99.90;;;;;;5087293;28;20413;-95
2023/03/23 01:23:23;;;;;;;18.40;15.18;;;10.50;99.90;;;;;;5085170;28;20438;-94
2023/03/23 01:25:49;;;;;;;19.08;15.85;;;10.50;99.90;;;;;;5086339;28;20440;-95
2023/03/23 01:28:15;;;;;;;18.42;15.80;;;10.40;99.90;;;;;;5083520;28;20981;-94
2023/03/23 01:30:41;;;;;;;18.88;15.80;;;10.60;99.90;;;;;;5103687;28;20481;-93
2023/03/23 01:33:07;;;;;;;21.42;16.80;;;10.40;99.90;;;;;;5084764;28;20505;-94
2023/03/23 01:35:33;;;;;;;16.38;14.68;;;10.40;99.90;;;;;;5086178;28;20853;-94
2023/03/23 01:37:58;;;;;;;18.13;14.83;;;10.60;99.90;;;;;;5085166;28;20426;-93
2023/03/23 01:40:27;;;;;;;19.10;16.20;;;10.20;99.90;;;;;;5068103;28;20439;-93
2023/03/23 01:42:53;;;;;;;20.23;15.45;;;10.70;99.90;;;;;;5085996;28;20463;-93
2023/03/23 01:45:37;;;;;;;18.27;15.90;;;10.50;99.90;;;;;;5066829;28;20438;-95
2023/03/23 01:48:16;;;;;;;17.63;15.73;;;10.50;99.90;;;;;;5086629;28;20409;-94
2023/03/23 01:51:06;;;;;;;20.15;15.93;;;10.60;99.90;;;;;;5085429;28;20761;-94
2023/03/23 01:53:38;;;;;;;17.55;14.90;;;10.60;99.90;;;;;;5084962;28;20414;-93
2023/03/23 01:56:06;;;;;;;16.88;14.20;;;11.00;99.90;;;;;;5086833;28;20480;-94
2023/03/23 01:58:41;;;;;;;15.20;13.38;;;10.70;99.90;;;;;;5100468;28;20491;-93
2023/03/23 02:01:11;;;;;;;16.30;13.00;;;10.80;99.90;;;;;;5086290;28;20425;-94
2023/03/23 02:03:41;;;;;;;17.63;14.05;;;10.70;99.90;;;;;;5084295;28;20421;-93
2023/03/23 02:06:07;;;;;;;16.10;12.73;;;10.80;99.90;;;;;;5084764;28;20584;-94
2023/03/23 02:08:35;;;;;;;17.40;12.48;;;10.80;99.90;;;;;;5084998;28;20480;-94
2023/03/23 02:11:01;;;;;;;15.48;10.88;;;10.90;99.90;;;;;;5068450;28;20412;-94
2023/03/23 02:13:29;;;;;;;15.90;11.90;;;11.00;99.90;;;;;;5085265;28;22044;-94
2023/03/23 02:16:00;;;;;;;15.05;11.55;;;11.10;99.90;;;;;;5083197;28;20464;-93
2023/03/23 02:18:29;;;;;;;13.73;9.57;;;11.10;99.90;;;;;;5068738;28;20457;-96
2023/03/23 02:21:30;;;;;;;14.23;9.88;;;11.30;99.90;;;;;;5067244;28;20853;-94
2023/03/23 02:24:10;;;;;;;12.82;9.75;;;11.00;99.90;;;;;;5066469;28;20991;-95
2023/03/23 02:26:58;;;;;;;11.57;9.40;;;11.00;99.90;;;;;;5069197;28;20518;-94
2023/03/23 02:29:37;;;;;;;14.02;9.15;;;11.00;99.90;;;;;;5067213;28;20439;-95
2023/03/23 02:32:15;;;;;;;13.07;8.63;;;11.10;99.90;;;;;;5085021;28;20401;-95
2023/03/23 02:34:55;;;;;;;13.23;8.13;;;11.00;99.90;;;;;;5068669;28;20488;-95
2023/03/23 02:37:30;;;;;;;12.10;9.07;;;11.10;99.90;;;;;;5082922;28;20914;-94
2023/03/23 02:40:21;;;;;;;11.38;8.55;;;11.10;99.90;;;;;;5084259;28;20410;-96
2023/03/23 02:42:50;;;;;;;9.98;7.00;;;11.00;99.90;;;;;;5068401;28;20984;-96
2023/03/23 02:45:17;;;;;;;10.90;7.15;;;11.10;99.90;;;;;;5067918;28;20833;-94
2023/03/23 02:47:44;;;;;;;11.07;7.20;;;11.10;99.90;;;;;;5067815;28;20394;-94
2023/03/23 02:50:16;;;;;;;9.07;6.97;;;11.20;99.90;;;;;;5082673;28;20448;-93
2023/03/23 02:52:44;;;;;;;9.95;7.38;;;11.10;99.90;;;;;;5068875;28;20402;-95
2023/03/23 02:55:11;;;;;;;9.18;6.53;;;11.40;99.90;;;;;;5065790;28;20405;-95
2023/03/23 02:57:38;;;;;;;9.40;6.80;;;11.10;99.90;;;;;;5068355;28;20734;-94
2023/03/23 03:00:09;;;;;;;11.00;7.20;;;11.10;99.90;;;;;;5067243;28;20857;-93
2023/03/23 03:02:40;;;;;;;9.73;7.07;;;11.10;99.90;;;;;;5067624;28;20402;-94
2023/03/23 03:05:21;;;;;;;10.50;6.55;;;11.30;99.90;;;;;;5067996;28;20405;-92
2023/03/23 03:08:20;;;;;;;12.60;7.55;;;11.10;99.90;;;;;;5065527;28;20417;-95
2023/03/23 03:10:58;;;;;;;11.23;7.80;;;11.20;99.90;;;;;;5030891;28;20409;-92
2023/03/23 03:13:38;;;;;;;12.68;7.32;;;11.20;99.90;;;;;;5084124;28;20410;-94
2023/03/23 03:16:24;;;;;;;9.93;6.75;;;11.10;99.90;;;;;;5066098;28;20481;-94
2023/03/23 03:19:13;;;;;;;8.80;6.60;;;11.10;99.90;;;;;;5068185;28;20513;-94
2023/03/23 03:21:42;;;;;;;8.95;5.80;;;11.10;99.90;;;;;;5066454;28;20494;-94
2023/03/23 03:24:11;;;;;;;8.70;6.38;;;11.20;99.90;;;;;;5067018;28;20897;-94
2023/03/23 03:26:40;;;;;;;8.93;6.68;;;11.10;99.90;;;;;;5067805;28;20441;-94
2023/03/23 03:29:07;;;;;;;8.23;6.15;;;11.30;99.90;;;;;;5083532;28;20490;-95
2023/03/23 03:31:38;;;;;;;11.75;7.45;;;11.20;99.90;;;;;;5068481;28;20623;-95
2023/03/23 03:34:05;;;;;;;11.23;7.67;;;11.30;99.90;;;;;;5099105;28;20448;-95
2023/03/23 03:36:36;;;;;;;14.48;7.95;;;11.10;99.90;;;;;;5068495;28;20402;-93
2023/03/23 03:39:08;;;;;;;12.73;8.52;;;11.00;99.90;;;;;;5065740;28;20429;-93
2023/03/23 03:41:37;;;;;;;14.10;9.38;;;10.90;99.90;;;;;;5067435;28;20795;-93
2023/03/23 03:44:05;;;;;;;15.32;9.98;;;11.40;99.90;;;;;;5084932;28;20413;-94
2023/03/23 03:46:31;;;;;;;12.90;8.40;;;10.90;99.90;;;;;;5084159;28;20410;-93
2023/03/23 03:48:58;;;;;;;11.00;5.32;;;10.90;99.90;;;;;;5069858;28;20421;-94
2023/03/23 03:51:25;;;;;;;12.63;7.00;;;10.70;99.90;;;;;;5070728;28;20436;-93
2023/03/23 03:53:51;;;;;;;15.18;8.25;;;10.70;99.90;;;;;;5072846;28;20441;-95
2023/03/23 03:56:17;;;;;;;17.48;10.75;;;10.70;99.90;;;;;;5070400;28;20410;-92
2023/03/23 03:58:43;;;;;;;14.68;9.25;;;10.70;99.90;;;;;;5071747;28;20928;-94
2023/03/23 04:01:10;;;;;;;18.85;11.00;;;10.60;99.90;;;;;;5070937;28;20402;-93
2023/03/23 04:03:36;;;;;;;14.80;9.25;;;10.60;99.90;;;;;;5087837;28;20503;-93
2023/03/23 04:06:03;;;;;;;14.55;9.25;;;10.80;99.90;;;;;;5089331;28;20912;-93
2023/03/23 04:08:29;;;;;;;12.95;7.43;;;10.60;99.90;;;;;;5069474;28;21063;-94
2023/03/23 04:10:55;;;;;;;10.32;5.65;;;10.60;99.90;;;;;;5072288;28;20976;-92
2023/03/23 04:13:21;;;;;;;11.63;5.75;;;10.80;99.90;;;;;;5069435;28;20430;-93
2023/03/23 04:15:48;;;;;;;11.03;4.37;;;10.60;99.90;;;;;;5071496;28;20398;-93
2023/03/23 04:18:17;;;;;;;7.30;3.60;;;10.60;99.90;;;;;;5086801;28;20430;-91
2023/03/23 04:20:48;;;;;;;9.45;3.83;;;10.30;99.90;;;;;;5071416;28;20402;-91
2023/03/23 04:23:19;;;;;;;7.18;2.53;;;10.70;99.90;;;;;;5071939;28;20762;-92
2023/03/23 04:25:46;;;;;;;6.40;2.43;;;10.70;99.90;;;;;;5069225;28;20409;-93
2023/03/23 04:28:13;;;;;;;6.65;1.65;;;10.40;99.90;;;;;;5071739;28;20405;-93
2023/03/23 04:30:42;;;;;;;6.10;2.30;;;10.30;99.90;;;;;;5069520;28;20398;-93
2023/03/23 04:33:14;;;;;;;9.38;3.35;;;10.40;99.90;;;;;;5071965;28;20409;-94
2023/03/23 04:35:45;;;;;;;8.98;3.47;;;10.40;99.90;;;;;;5070843;28;20928;-93
2023/03/23 04:38:13;;;;;;;10.38;3.60;;;10.40;99.90;;;;;;5070101;28;20426;-93
2023/03/23 04:40:40;;;;;;;10.07;3.50;;;10.30;99.90;;;;;;5071417;28;20433;-93
2023/03/23 04:43:06;;;;;;;11.33;3.10;;;10.20;99.90;;;;;;5069749;28;20528;-94
2023/03/23 04:45:34;;;;;;;10.88;2.33;;;10.20;99.90;;;;;;5071628;28;20397;-92
2023/03/23 04:52:27;;;;;;;10.90;1.90;;;10.30;99.90;;;;;;5031133;28;20392;-95
2023/03/23 04:59:17;;;;;;;11.75;2.60;;;10.30;99.90;;;;;;5003018;28;20431;-94
2023/03/23 05:02:17;;;;;;;14.60;2.58;;;9.80;99.90;;;;;;4968337;28;20425;-95
2023/03/23 05:05:37;;;;;;;;;;;;;;;;;;;;;
2023/03/23 05:08:22;;;;;;;12.80;2.78;;;10.30;99.90;;;;;;5040401;28;20479;-95
2023/03/23 05:14:25;;;;;;;;;;;;;;;;;;;;;
2023/03/23 05:35:50;;;;;;;15.43;2.97;;;10.30;99.90;;;;;;5008548;28;20404;-95
2023/03/23 05:43:11;;;;;;;19.08;2.97;;;10.30;99.90;;;;;;5027401;28;20456;-96
2023/03/23 05:49:12;;;;;;;15.93;2.55;;;10.10;99.90;;;;;;4934809;28;20504;-95
2023/03/23 05:57:59;;;;;;;17.33;2.83;;;10.20;99.90;;;;;;5214120;23;20434;-96
2023/03/23 06:00:56;;;;;;;19.35;3.22;;;10.60;99.90;;;;;;4984070;28;20831;-96
2023/03/23 06:10:26;;;;;;;20.50;3.78;;;10.40;99.90;;;;;;5304712;23;20428;-95
2023/03/23 06:17:28;;;;;;;22.13;2.90;;;10.20;99.90;;;;;;4948118;28;20435;-96
2023/03/23 06:20:17;;;;;;;16.25;2.60;;;10.20;99.90;;;;;;4906561;29;20425;-95
2023/03/23 06:23:17;;;;;;;17.33;3.08;;;10.10;99.90;;;;;;4909936;29;20794;-95
2023/03/23 06:26:55;;;;;;;11.55;1.52;;;10.00;99.90;;;;;;4914491;29;20738;-94
2023/03/23 06:29:55;;;;;;;9.68;1.30;;;9.90;99.90;;;;;;4924816;29;20429;-95
2023/03/23 08:11:04;;;;;;;;;;;;;;;;;;;;;
2023/03/23 08:13:58;;;;;;;27.90;5.03;;;11.40;99.90;;;;;;4907089;29;20409;-96
2023/03/23 08:20:53;;;;;;;23.25;4.80;;;11.50;99.90;;;;;;4875001;29;20867;-95
2023/03/23 08:23:37;;;;;;;25.63;4.40;;;11.50;99.90;;;;;;5021199;23;20549;-96
2023/03/23 09:07:47;;;;;;;24.55;4.60;;;12.60;99.90;;;;;;5473083;23;20428;-94
2023/03/23 09:10:54;;;;;;;25.35;4.95;;;13.00;99.90;;;;;;4935013;29;20426;-96
2023/03/23 09:24:45;;;;;;;27.00;5.40;;;12.70;99.90;;;;;;4951401;28;20435;-96
2023/03/23 09:27:42;;;;;;;22.63;4.57;;;12.90;99.90;;;;;;4932944;29;20427;-96
2023/03/23 09:30:51;;;;;;;;;;;;;;;;;;;;;
2023/03/23 09:34:15;;;;;;;21.05;4.28;;;13.00;99.90;;;;;;4908084;29;20415;-95
2023/03/23 09:41:21;;;;;;;24.13;4.13;;;12.90;99.90;;;;;;4876730;29;20427;-95
2023/03/23 09:44:46;;;;;;;24.23;4.78;;;12.80;99.90;;;;;;4912217;29;20432;-95
2023/03/23 09:51:47;;;;;;;21.73;4.25;;;12.60;99.90;;;;;;4852618;29;20481;-96
2023/03/23 09:54:37;;;;;;;19.67;3.70;;;12.80;99.90;;;;;;4832704;29;20447;-96
2023/03/23 09:57:42;;;;;;;22.23;4.25;;;13.00;99.90;;;;;;4854961;29;20434;-95
2023/03/23 10:00:45;;;;;;;21.50;4.03;;;13.30;99.90;;;;;;4837049;29;20493;-95
2023/03/23 10:03:52;;;;;;;23.73;3.97;;;13.40;99.90;;;;;;4841297;29;20806;-95
2023/03/23 10:06:30;;;;;;;22.33;4.07;;;13.90;99.90;;;;;;4781925;30;20427;-95
2023/03/23 10:09:19;;;;;;;19.92;3.90;;;14.20;99.10;;;;;;4763081;29;20437;-96
2023/03/23 10:13:14;;;;;;;21.13;3.70;;;14.50;98.70;;;;;;4765290;30;20432;-96
2023/03/23 10:16:30;;;;;;;19.98;3.92;;;14.00;98.20;;;;;;4738160;30;20476;-95
2023/03/23 10:19:47;;;;;;;19.20;3.43;;;13.80;96.40;;;;;;4795947;29;20641;-95
2023/03/23 10:22:32;;;;;;;20.15;3.08;;;13.70;97.90;;;;;;4800919;29;20443;-94
2023/03/23 10:43:56;;;;;;;17.27;3.75;;;16.70;86.70;;;;;;661939;23;22078;-92
2023/03/23 10:46:48;;;;;;;17.98;3.45;;;16.80;89.90;;;;;;4906944;29;20500;-95
2023/03/23 10:49:24;;;;;;;16.97;3.50;;;16.40;82.40;;;;;;4909917;29;21004;-94
2023/03/23 10:55:38;;;;;;;19.65;3.85;;;15.30;85.70;;;;;;4921481;29;20432;-92
2023/03/23 10:58:21;;;;;;;15.38;3.45;;;15.00;90.10;;;;;;4906264;29;21022;-95
2023/03/23 11:01:33;;;;;;;23.10;4.23;;;14.70;91.30;;;;;;4906132;29;20488;-95
2023/03/23 11:04:05;;;;;;;18.52;3.30;;;15.00;92.70;;;;;;4899922;29;20440;-93
2023/03/23 11:06:48;;;;;;;17.95;3.72;;;15.70;94.60;;;;;;4905147;29;20421;-96
2023/03/23 11:09:20;;;;;;;17.20;3.13;;;16.20;90.10;;;;;;4901405;29;20508;-93
2023/03/23 11:12:02;;;;;;;15.88;3.38;;;16.80;86.10;;;;;;4911257;29;20503;-94
2023/03/23 11:14:38;;;;;;;15.50;2.85;;;17.20;72.10;;;;;;4907758;29;20434;-96
2023/03/23 11:17:27;;;;;;;14.83;2.90;;;17.40;70.90;;;;;;4909949;29;20979;-95
2023/03/23 11:20:17;;;;;;;13.93;2.85;;;17.20;65.50;;;;;;4909328;29;20488;-96
2023/03/23 11:23:24;;;;;;;14.95;3.00;;;17.10;65.90;;;;;;4837479;29;20433;-96
2023/03/23 11:26:08;;;;;;;12.75;2.50;;;17.20;67.90;;;;;;4835509;29;20497;-95
2023/03/23 11:28:58;;;;;;;11.43;2.20;;;17.50;66.70;;;;;;4920623;29;20429;-95
2023/03/23 11:31:36;;;;;;;14.15;2.67;;;17.60;62.70;;;;;;4910981;29;20429;-96
2023/03/23 11:34:56;;;;;;;14.23;2.88;;;17.80;65.00;;;;;;4906819;29;20425;-94
2023/03/23 11:37:42;;;;;;;11.57;2.33;;;17.90;64.00;;;;;;4837519;29;20475;-95
2023/03/23 11:41:12;;;;;;;13.18;2.20;;;18.00;60.00;;;;;;4752061;30;20450;-94
2023/03/23 11:47:36;;;;;;;11.27;1.80;;;17.60;60.00;;;;;;4836575;29;20428;-96
2023/03/23 11:50:42;;;;;;;10.87;2.13;;;17.70;58.30;;;;;;4833895;29;20882;-95
2023/03/23 11:53:25;;;;;;;8.87;1.43;;;17.60;56.50;;;;;;4812557;29;20848;-96
2023/03/23 11:56:42;;;;;;;12.20;2.15;;;18.00;59.40;;;;;;4800022;29;20439;-96
2023/03/23 11:59:30;;;;;;;11.20;2.10;;;17.60;58.30;;;;;;4785078;29;20447;-96
2023/03/23 12:09:41;;;;;;;9.60;1.98;;;17.20;57.10;;;;;;5153470;23;20645;-96
2023/03/23 12:13:20;;;;;;;9.88;1.73;;;17.40;57.20;;;;;;4926490;29;20437;-95
2023/03/23 12:20:21;;;;;;;13.45;2.30;;;17.30;59.90;;;;;;4857246;29;20458;-95
2023/03/23 12:23:47;;;;;;;13.73;2.30;;;17.30;61.10;;;;;;4854516;29;20468;-94
2023/03/23 12:26:58;;;;;;;12.35;1.90;;;17.50;61.70;;;;;;4837503;29;20444;-95
2023/03/23 12:29:33;;;;;;;15.48;2.40;;;17.90;62.30;;;;;;4846431;29;20495;-96
2023/03/23 12:35:43;;;;;;;;;;;;;;;;;;;;;
2023/03/23 12:38:54;;;;;;;10.77;2.13;;;18.20;59.40;;;;;;4929537;29;20437;-95
2023/03/23 12:42:26;;;;;;;12.35;2.17;;;18.10;59.80;;;;;;4917949;29;20429;-96
2023/03/23 12:48:52;;;;;;;10.77;2.00;;;18.60;57.80;;;;;;4869739;29;20444;-96
2023/03/23 12:52:11;;;;;;;;;;;;;;;;;;;;;
2023/03/23 12:54:56;;;;;;;12.82;2.40;;;18.50;58.10;;;;;;4928441;29;20508;-96
2023/03/23 12:57:51;;;;;;;10.60;2.13;;;18.30;59.40;;;;;;4909023;29;20425;-94
2023/03/23 13:00:57;;;;;;;13.48;2.38;;;18.30;60.70;;;;;;4913181;29;20417;-95
2023/03/23 13:03:50;;;;;;;12.95;2.40;;;18.60;60.00;;;;;;4909528;29;20429;-96
2023/03/23 13:06:39;;;;;;;12.60;2.50;;;18.80;59.80;;;;;;4906872;29;21033;-96
2023/03/23 13:09:33;;;;;;;12.85;2.38;;;19.10;59.20;;;;;;4927321;29;20426;-96
2023/03/23 13:12:34;;;;;;;14.68;2.33;;;19.40;57.40;;;;;;4925838;29;20441;-96
2023/03/23 13:19:04;;;;;;;12.63;2.63;;;19.30;56.10;;;;;;4854375;29;20478;-96
2023/03/23 13:21:50;;;;;;;11.68;2.42;;;19.70;56.00;;;;;;4850815;29;20489;-93
2023/03/23 13:24:27;;;;;;;11.88;2.67;;;19.50;57.20;;;;;;4909406;29;20460;-96
2023/03/23 13:26:57;;;;;;;13.07;2.77;;;20.10;55.60;;;;;;4905166;29;20424;-94
2023/03/23 13:29:35;;;;;;;12.13;2.63;;;20.00;57.60;;;;;;4926576;29;20488;-94
2023/03/23 13:32:31;;;;;;;12.35;2.08;;;20.10;53.60;;;;;;4907034;29;20413;-95
2023/03/23 13:35:39;;;;;;;13.20;3.05;;;20.20;54.00;;;;;;4924705;29;20429;-95
2023/03/23 13:38:39;;;;;;;12.95;2.78;;;19.60;55.40;;;;;;4905063;29;20417;-94
2023/03/23 13:41:28;;;;;;;13.43;2.90;;;18.50;58.70;;;;;;4852462;29;20473;-93
2023/03/23 13:44:34;;;;;;;10.85;2.65;;;18.10;60.50;;;;;;4868932;29;20453;-95
2023/03/23 13:47:36;;;;;;;15.25;3.00;;;18.10;60.70;;;;;;4917747;29;20410;-95
2023/03/23 13:50:29;;;;;;;13.75;2.90;;;18.50;61.60;;;;;;4848180;29;20489;-96
2023/03/23 13:53:42;;;;;;;13.20;2.60;;;18.80;62.80;;;;;;4850741;29;20433;-96
2023/03/23 13:56:18;;;;;;;13.05;2.97;;;19.10;58.10;;;;;;4923301;29;20425;-94
2023/03/23 13:59:06;;;;;;;15.10;2.40;;;18.80;60.50;;;;;;4906588;29;20448;-95
2023/03/23 14:02:20;;;;;;;14.52;2.78;;;18.30;57.30;;;;;;4927174;29;20437;-95
2023/03/23 14:05:17;;;;;;;13.55;2.50;;;18.40;61.00;;;;;;4833662;29;20978;-94
2023/03/23 14:08:27;;;;;;;13.10;2.50;;;18.50;62.40;;;;;;4876846;29;20421;-94
2023/03/23 14:10:59;;;;;;;10.52;2.13;;;18.60;59.10;;;;;;4835061;29;20421;-95
2023/03/23 14:13:37;;;;;;;10.27;2.08;;;18.50;59.30;;;;;;4914785;29;20508;-95
2023/03/23 14:16:23;;;;;;;12.10;2.33;;;18.70;60.80;;;;;;4903296;29;20793;-96
2023/03/23 14:19:00;;;;;;;9.80;1.90;;;18.90;58.00;;;;;;4904302;29;20454;-96
2023/03/23 14:21:44;;;;;;;10.82;2.03;;;19.10;56.80;;;;;;4919768;29;20540;-95
2023/03/23 14:24:24;;;;;;;8.82;1.60;;;19.60;58.10;;;;;;4914514;29;20460;-93
2023/03/23 14:27:09;;;;;;;10.32;1.88;;;19.70;58.70;;;;;;4918588;29;20421;-96
2023/03/23 14:29:38;;;;;;;9.48;1.30;;;20.10;56.20;;;;;;4903518;29;20480;-94
2023/03/23 14:32:42;;;;;;;9.30;1.85;;;20.50;54.30;;;;;;4918368;29;20563;-93
2023/03/23 14:38:31;;;;;;;8.45;1.65;;;19.80;54.40;;;;;;4915830;29;20445;-95
2023/03/23 14:41:11;;;;;;;11.10;2.20;;;19.90;55.30;;;;;;4900269;29;20542;-94
2023/03/23 14:43:47;;;;;;;9.15;1.52;;;19.60;55.80;;;;;;4903708;29;20488;-96
2023/03/23 14:46:19;;;;;;;9.00;1.80;;;19.70;55.40;;;;;;4916525;29;20457;-94
2023/03/23 14:48:45;;;;;;;10.75;1.80;;;19.50;54.50;;;;;;4918170;29;20413;-93
2023/03/23 14:51:19;;;;;;;9.05;1.30;;;19.10;55.40;;;;;;4914590;29;20432;-96
2023/03/23 14:53:54;;;;;;;7.90;1.38;;;19.30;55.50;;;;;;4915996;29;20417;-96
2023/03/23 14:56:46;;;;;;;;;;;;;;;;;;;;;
2023/03/23 15:00:15;;;;;;;9.18;1.50;;;19.20;55.90;;;;;;4917408;29;20437;-95
2023/03/23 15:02:54;;;;;;;8.70;1.30;;;18.40;56.00;;;;;;4899186;29;20498;-95
2023/03/23 15:05:31;;;;;;;7.85;1.10;;;17.90;59.40;;;;;;4914340;29;20428;-94
2023/03/23 15:11:32;;;;;;;8.65;1.30;;;17.20;61.90;;;;;;4882961;29;20417;-95
2023/03/23 15:14:15;;;;;;;7.93;1.15;;;16.90;62.10;;;;;;4899391;29;20427;-95
2023/03/23 15:16:55;;;;;;;9.05;1.50;;;16.70;61.00;;;;;;4912231;29;20418;-95
2023/03/23 15:19:42;;;;;;;9.32;1.30;;;16.40;61.10;;;;;;4914528;29;20491;-94
2023/03/23 15:22:29;;;;;;;5.82;0.73;;;16.20;63.10;;;;;;4913313;29;20437;-93
2023/03/23 15:25:19;;;;;;;6.30;1.02;;;16.10;61.40;;;;;;4917509;29;20873;-94
2023/03/23 15:28:18;;;;;;;8.57;1.10;;;15.80;60.40;;;;;;4899618;29;20774;-95
2023/03/23 15:30:53;;;;;;;7.60;1.15;;;15.90;64.90;;;;;;4899787;29;20921;-94
2023/03/23 15:33:26;;;;;;;10.23;1.13;;;15.90;62.00;;;;;;4918179;29;20425;-95
2023/03/23 15:36:14;;;;;;;9.80;1.98;;;15.40;62.10;;;;;;4917304;29;20417;-94
2023/03/23 15:39:16;;;;;;;9.23;1.27;;;15.50;64.70;;;;;;4936371;29;20445;-95
2023/03/23 15:41:50;;;;;;;11.50;1.70;;;15.80;65.60;;;;;;4915368;29;20484;-94
2023/03/23 15:44:28;;;;;;;13.13;2.20;;;15.50;68.60;;;;;;4920157;29;20421;-95
2023/03/23 15:47:16;;;;;;;13.45;2.15;;;15.50;69.60;;;;;;4921691;29;20485;-94
2023/03/23 15:50:17;;;;;;;13.77;2.45;;;15.30;70.30;;;;;;4925690;29;20424;-95
2023/03/23 15:52:47;;;;;;;16.25;3.20;;;15.20;73.30;;;;;;4907464;29;20787;-95
2023/03/23 15:55:47;;;;;;;13.65;2.20;;;15.30;76.90;;;;;;4920486;29;20478;-96
2023/03/23 15:58:22;;;;;;;17.27;2.33;;;15.00;77.90;;;;;;4924093;29;20437;-95
2023/03/23 16:01:11;;;;;;;15.80;2.28;;;15.10;80.00;;;;;;4926282;29;20439;-94
2023/03/23 16:07:28;;;;;;;18.93;2.80;;;14.60;80.30;;;;;;4862736;29;20413;-94
2023/03/23 16:09:57;;;;;;;16.02;2.85;;;14.60;83.50;;;;;;4925450;29;20437;-93
2023/03/23 16:12:22;;;;;;;13.77;2.30;;;14.60;82.00;;;;;;4928261;29;20524;-95
2023/03/23 16:19:49;;;;;;;15.40;2.97;;;14.60;84.70;;;;;;4884802;29;20503;-94
2023/03/23 16:23:11;;;;;;;17.30;3.25;;;14.30;86.80;;;;;;4844870;29;20427;-95
2023/03/23 16:32:13;;;;;;;14.30;2.65;;;14.30;87.80;;;;;;5410853;23;20399;-95
2023/03/23 16:35:27;;;;;;;18.40;3.78;;;14.50;89.70;;;;;;4914619;29;20420;-96
2023/03/23 16:38:16;;;;;;;14.60;2.53;;;14.20;91.30;;;;;;4897367;29;20460;-96
2023/03/23 16:43:20;;;;;;;16.55;3.05;;;14.10;92.00;;;;;;5479525;23;20437;-96
2023/03/23 17:09:34;;;;;;;17.77;3.25;;;13.70;95.80;;;;;;4932436;29;20503;-95
2023/03/23 17:14:57;;;;;;;20.33;3.10;;;13.60;95.70;;;;;;5596291;23;21517;-95
2023/03/23 17:26:12;;;;;;;16.63;3.38;;;13.30;98.00;;;;;;5187215;23;20430;31
2023/03/23 17:38:05;;;;;;;17.13;3.50;;;13.10;99.50;;;;;;5078620;23;20506;-94
2023/03/23 17:43:09;;;;;;;18.73;3.40;;;13.00;99.90;;;;;;5900568;23;20400;-94
2023/03/23 17:55:16;;;;;;;17.48;3.83;;;12.80;99.90;;;;;;5356619;23;20451;-94
2023/03/23 17:58:10;;;;;;;20.27;4.15;;;12.70;99.90;;;;;;5335059;23;20493;-94
2023/03/23 18:15:26;;;;;;;21.23;3.70;;;12.60;99.90;;;;;;595274;23;20765;-93
2023/03/23 18:17:56;;;;;;;21.77;4.10;;;12.60;99.90;;;;;;4921857;23;20464;-96
2023/03/23 18:20:25;;;;;;;22.50;3.92;;;12.60;99.90;;;;;;4930775;28;20479;-95
2023/03/23 18:28:40;;;;;;;20.27;4.55;;;12.50;99.90;;;;;;4962308;23;20439;-96
2023/03/23 18:33:47;;;;;;;24.38;4.50;;;12.50;99.90;;;;;;4943982;28;20439;-95
2023/03/23 18:36:45;;;;;;;18.83;4.03;;;12.40;99.90;;;;;;4993294;23;20493;-96
2023/03/23 18:39:22;;;;;;;22.35;3.88;;;12.40;99.90;;;;;;4900760;28;20423;-95
2023/03/23 18:42:04;;;;;;;20.98;3.88;;;12.40;99.90;;;;;;4925299;29;20506;-96
2023/03/23 18:47:30;;;;;;;20.13;3.70;;;12.30;99.90;;;;;;4963774;23;20454;-94
2023/03/23 18:50:00;;;;;;;20.00;4.20;;;12.60;99.90;;;;;;4924883;29;20422;-94
2023/03/23 18:52:41;;;;;;;21.05;4.70;;;12.40;99.90;;;;;;4920745;29;20424;-96
2023/03/23 18:55:12;;;;;;;20.42;4.57;;;12.30;99.90;;;;;;4919268;29;20432;-95
2023/03/23 19:02:05;;;;;;;18.35;4.03;;;12.30;99.90;;;;;;4863931;29;20524;-96
2023/03/23 19:05:55;;;;;;;;;;;;;;;;;;;;;
2023/03/23 19:08:28;;;;;;;21.83;4.82;;;12.30;99.90;;;;;;4822712;29;20425;-94
2023/03/23 19:15:03;;;;;;;20.70;4.50;;;12.30;99.90;;;;;;4973415;23;20463;-95
2023/03/23 19:17:58;;;;;;;;;;;;;;;;;;;;;
2023/03/23 19:31:29;;;;;;;21.50;4.85;;;12.30;99.90;;;;;;4788292;29;20486;-95
2023/03/23 19:43:06;;;;;;;;;;;;;;;;;;;;;
2023/03/23 19:45:11;;;;;;;16.65;4.15;;;12.40;99.90;;;;;;4771871;29;20442;-96
2023/03/23 19:47:40;;;;;;;19.48;4.53;;;12.90;99.90;;;;;;4777505;29;20427;-95
2023/03/23 19:50:06;;;;;;;17.10;4.20;;;12.40;99.90;;;;;;4866565;29;20404;-94
2023/03/23 19:52:32;;;;;;;20.08;5.25;;;12.40;99.90;;;;;;4911904;29;20483;-93
2023/03/23 19:54:58;;;;;;;21.17;5.00;;;12.90;99.90;;;;;;4911512;29;20436;-94
2023/03/23 19:57:24;;;;;;;16.67;4.77;;;12.30;99.90;;;;;;4912349;29;20506;-94
2023/03/23 19:59:49;;;;;;;16.23;5.07;;;12.20;99.90;;;;;;4910447;29;20443;-95
2023/03/23 20:02:15;;;;;;;21.92;6.10;;;12.50;99.90;;;;;;4912448;29;20412;-94
2023/03/23 20:04:42;;;;;;;18.17;5.57;;;12.10;99.90;;;;;;4910255;29;20423;-93
2023/03/23 20:07:07;;;;;;;17.50;4.95;;;12.00;99.90;;;;;;4912156;29;20415;-93
2023/03/23 20:09:33;;;;;;;20.63;5.65;;;12.00;99.90;;;;;;4911206;29;20415;-93
2023/03/23 20:11:59;;;;;;;19.05;5.60;;;12.20;99.90;;;;;;4910525;29;20863;-96
2023/03/23 20:14:25;;;;;;;19.75;5.85;;;12.00;99.90;;;;;;4912310;29;20427;-94
2023/03/23 20:16:51;;;;;;;20.93;6.43;;;12.20;99.90;;;;;;4910189;29;20415;-95
2023/03/23 20:19:16;;;;;;;19.60;6.60;;;11.90;99.90;;;;;;4913038;29;20475;-94
2023/03/23 20:21:44;;;;;;;17.88;6.85;;;12.00;99.90;;;;;;4911752;28;20902;-93
2023/03/23 20:24:10;;;;;;;20.48;6.55;;;12.00;99.90;;;;;;4912597;29;20493;-95
